Time;durP1;ratioP1;P1;durP2;ratioP2;P2;SDS_P1;SDS_P2;PMS_P1;PMS_P2;Temp;Humidity;BMP_temperature;BMP_pressure;BME280_temperature;BME280_humidity;BME280_pressure;Samples;Min_cycle;Max_cycle;Signal;HPM_P1;HPM_P2
2021/05/23 00:00:10;;;;;;;;;;;10.50;99.90;;;;;;4957560;28;19926;-79
2021/05/23 00:02:37;;;;;;;;;;;10.60;99.90;;;;;;4989660;28;20377;-79
2021/05/23 00:05:11;;;;;;;;;;;10.60;99.90;;;;;;4957287;28;19980;-79
2021/05/23 00:07:43;;;;;;;;;;;10.60;99.90;;;;;;4957436;28;19926;-79
2021/05/23 00:10:10;;;;;;;;;;;10.60;99.90;;;;;;4973436;28;19933;-78
2021/05/23 00:12:37;;;;;;;;;;;10.60;99.90;;;;;;4957311;28;19926;-79
2021/05/23 00:15:10;;;;;;;;;;;10.70;99.90;;;;;;4972573;28;19934;-79
2021/05/23 00:17:37;;;;;;;;;;;10.70;99.90;;;;;;4957299;28;19926;-79
2021/05/23 00:20:04;;;;;;;;;;;10.70;99.90;;;;;;4957438;28;19930;-80
2021/05/23 00:22:31;;;;;;;;;;;10.70;99.90;;;;;;4957081;28;20278;-79
2021/05/23 00:24:57;;;;;;;;;;;10.70;99.90;;;;;;4972989;28;19961;-79
2021/05/23 00:27:29;;;;;;;;;;;10.70;99.90;;;;;;4957313;28;19930;-79
2021/05/23 00:29:56;;;;;;;;;;;10.70;99.90;;;;;;4972969;28;19926;-79
2021/05/23 00:32:27;;;;;;;;;;;10.70;99.90;;;;;;4957109;28;20009;-80
2021/05/23 00:34:59;;;;;;;;;;;10.70;99.90;;;;;;4972257;28;19930;-78
2021/05/23 00:37:27;;;;;;;;;;;10.80;99.90;;;;;;4956974;28;19926;-79
2021/05/23 00:39:53;;;;;;;;;;;10.70;99.90;;;;;;4989326;28;19980;-80
2021/05/23 00:42:20;;;;;;;;;;;10.80;99.90;;;;;;4956652;28;19926;-79
2021/05/23 00:44:47;;;;;;;;;;;10.70;99.90;;;;;;4972809;28;20015;-79
2021/05/23 00:47:19;;;;;;;;;;;10.70;99.90;;;;;;4973926;28;19985;-79
2021/05/23 00:49:51;;;;;;;;;;;10.70;99.90;;;;;;4972316;28;19930;-79
2021/05/23 00:52:22;;;;;;;;;;;10.70;99.90;;;;;;4958247;28;20355;-79
2021/05/23 00:54:49;;;;;;;;;;;10.70;99.90;;;;;;4982022;28;19998;-80
2021/05/23 00:57:16;;;;;;;;;;;10.70;99.90;;;;;;4965199;28;19926;-80
2021/05/23 00:59:49;;;;;;;;;;;10.70;99.90;;;;;;4963491;28;19926;-80
2021/05/23 01:02:40;;;;;;;;;;;10.70;99.90;;;;;;4973772;28;19992;-80
2021/05/23 01:05:14;;;;;;;;;;;10.70;99.90;;;;;;4956231;28;19981;-79
2021/05/23 01:07:42;;;;;;;;;;;10.60;99.90;;;;;;4972423;28;19926;-79
2021/05/23 01:10:10;;;;;;;;;;;10.70;99.90;;;;;;4956767;28;19926;-79
2021/05/23 01:12:58;;;;;;;;;;;10.60;99.90;;;;;;4957028;28;19926;-79
2021/05/23 01:15:31;;;;;;;;;;;10.50;99.90;;;;;;4971335;28;20373;-77
2021/05/23 01:18:04;;;;;;;;;;;10.50;99.90;;;;;;4968464;28;19969;-77
2021/05/23 01:20:42;;;;;;;;;;;10.50;99.90;;;;;;4936583;29;19958;-76
2021/05/23 01:23:18;;;;;;;;;;;10.40;99.90;;;;;;4952403;28;20030;-77
2021/05/23 01:25:51;;;;;;;;;;;10.40;99.90;;;;;;4936055;29;19931;-77
2021/05/23 01:28:23;;;;;;;;;;;10.30;99.90;;;;;;4937836;29;19933;-77
2021/05/23 01:30:50;;;;;;;;;;;10.30;99.90;;;;;;4952703;28;19970;-77
2021/05/23 01:33:18;;;;;;;;;;;10.20;99.90;;;;;;4921737;29;20023;-78
2021/05/23 01:35:55;;;;;;;;;;;10.10;99.90;;;;;;4937403;29;20021;-77
2021/05/23 01:38:22;;;;;;;;;;;10.00;99.90;;;;;;4953776;28;19970;-78
2021/05/23 01:40:49;;;;;;;;;;;9.90;99.90;;;;;;4921829;28;20350;-78
2021/05/23 01:43:17;;;;;;;;;;;9.80;99.90;;;;;;4937533;29;20110;-77
2021/05/23 01:45:43;;;;;;;;;;;9.70;99.90;;;;;;4953461;28;19927;-77
2021/05/23 01:48:10;;;;;;;;;;;9.60;99.90;;;;;;4937835;29;19954;-79
2021/05/23 01:50:42;;;;;;;;;;;9.40;99.90;;;;;;4969627;28;20025;-77
2021/05/23 01:53:09;;;;;;;;;;;9.40;99.90;;;;;;4937953;29;19934;-77
2021/05/23 01:55:36;;;;;;;;;;;9.30;99.90;;;;;;4953330;28;19965;-77
2021/05/23 01:58:03;;;;;;;;;;;9.20;99.90;;;;;;4937611;29;19927;-77
2021/05/23 02:00:41;;;;;;;;;;;9.20;99.90;;;;;;4953708;28;20366;-77
2021/05/23 02:03:08;;;;;;;;;;;9.10;99.90;;;;;;4953615;28;19977;-77
2021/05/23 02:05:41;;;;;;;;;;;9.00;99.90;;;;;;4955267;28;19930;-77
2021/05/23 02:08:11;;;;;;;;;;;8.90;99.90;;;;;;4941239;29;20398;-77
2021/05/23 02:10:37;;;;;;;;;;;8.80;99.90;;;;;;4941169;29;20022;-77
2021/05/23 02:13:09;;;;;;;;;;;8.80;99.90;;;;;;4958179;28;19927;-77
2021/05/23 02:15:36;;;;;;;;;;;8.80;99.90;;;;;;4940871;29;19933;-77
2021/05/23 02:18:08;;;;;;;;;;;8.70;99.90;;;;;;4941213;29;19958;-77
2021/05/23 02:20:35;;;;;;;;;;;8.70;99.90;;;;;;4958127;29;19950;-77
2021/05/23 02:23:12;;;;;;;;;;;8.70;99.90;;;;;;4957391;28;20305;-78
2021/05/23 02:25:44;;;;;;;;;;;8.70;99.90;;;;;;4940740;29;19926;-77
2021/05/23 02:28:16;;;;;;;;;;;8.60;99.90;;;;;;4957567;28;19927;-77
2021/05/23 02:30:44;;;;;;;;;;;8.70;99.90;;;;;;4940643;29;19932;-77
2021/05/23 02:33:16;;;;;;;;;;;8.60;99.90;;;;;;4957246;28;19933;-77
2021/05/23 02:35:44;;;;;;;;;;;8.50;99.90;;;;;;4956696;28;19927;-77
2021/05/23 02:38:16;;;;;;;;;;;8.50;99.90;;;;;;4957341;28;19927;-77
2021/05/23 02:40:43;;;;;;;;;;;8.40;99.90;;;;;;4940420;29;20005;-77
2021/05/23 02:43:16;;;;;;;;;;;8.40;99.90;;;;;;4940348;29;19962;-77
2021/05/23 02:45:49;;;;;;;;;;;8.40;99.90;;;;;;4939779;29;19926;-77
2021/05/23 02:48:20;;;;;;;;;;;8.40;99.90;;;;;;4957270;28;20033;-77
2021/05/23 02:50:52;;;;;;;;;;;8.40;99.90;;;;;;4940421;29;19973;-77
2021/05/23 02:53:24;;;;;;;;;;;8.40;99.90;;;;;;4956965;28;19926;-77
2021/05/23 02:55:55;;;;;;;;;;;8.30;99.90;;;;;;4940830;29;19930;-77
2021/05/23 02:58:27;;;;;;;;;;;8.30;99.90;;;;;;4956800;28;19926;-77
2021/05/23 03:00:54;;;;;;;;;;;8.30;99.90;;;;;;4940082;28;19986;-77
2021/05/23 03:03:20;;;;;;;;;;;8.20;99.90;;;;;;4940311;29;19969;-76
2021/05/23 03:05:48;;;;;;;;;;;8.20;99.90;;;;;;4956177;28;19927;-78
2021/05/23 03:08:15;;;;;;;;;;;8.20;99.90;;;;;;4956223;28;19926;-77
2021/05/23 03:10:45;;;;;;;;;;;8.20;99.90;;;;;;4924114;29;19977;-78
2021/05/23 03:13:12;;;;;;;;;;;8.20;99.90;;;;;;4939640;29;20066;-77
2021/05/23 03:15:44;;;;;;;;;;;8.10;99.90;;;;;;4956852;28;19933;-76
2021/05/23 03:18:16;;;;;;;;;;;8.10;99.90;;;;;;4955897;28;20052;-78
2021/05/23 03:20:47;;;;;;;;;;;8.10;99.90;;;;;;4956626;28;20413;-77
2021/05/23 03:23:14;;;;;;;;;;;8.10;99.90;;;;;;4939656;29;19933;-77
2021/05/23 03:25:41;;;;;;;;;;;8.00;99.90;;;;;;4940190;29;19934;-77
2021/05/23 03:28:12;;;;;;;;;;;8.00;99.90;;;;;;4939706;29;20385;-77
2021/05/23 03:30:41;;;;;;;;;;;8.00;99.90;;;;;;4939461;29;19973;-77
2021/05/23 03:33:13;;;;;;;;;;;8.00;99.90;;;;;;4939298;29;19933;-77
2021/05/23 03:35:44;;;;;;;;;;;8.00;99.90;;;;;;4939064;29;20278;-77
2021/05/23 03:38:16;;;;;;;;;;;8.00;99.90;;;;;;4956401;29;20322;-77
2021/05/23 03:40:43;;;;;;;;;;;8.00;99.90;;;;;;4939124;29;19957;-77
2021/05/23 03:43:14;;;;;;;;;;;8.00;99.90;;;;;;4939249;29;20393;-77
2021/05/23 03:45:41;;;;;;;;;;;7.90;99.90;;;;;;4956321;29;19930;-77
2021/05/23 03:48:13;;;;;;;;;;;7.90;99.90;;;;;;4939361;29;20021;-77
2021/05/23 03:50:39;;;;;;;;;;;7.90;99.90;;;;;;4956226;29;19926;-77
2021/05/23 03:53:11;;;;;;;;;;;7.80;99.90;;;;;;4955793;28;20036;-77
2021/05/23 03:55:38;;;;;;;;;;;7.80;99.90;;;;;;4938964;29;20020;-77
2021/05/23 03:58:07;;;;;;;;;;;7.80;99.90;;;;;;4939091;29;20017;-77
2021/05/23 04:00:35;;;;;;;;;;;7.80;99.90;;;;;;4939130;29;19926;-77
2021/05/23 04:03:07;;;;;;;;;;;7.80;99.90;;;;;;4950603;28;19957;-80
2021/05/23 04:05:39;;;;;;;;;;;7.80;99.90;;;;;;4979080;28;20317;-79
2021/05/23 04:08:05;;;;;;;;;;;7.70;99.90;;;;;;4962356;29;19926;-78
2021/05/23 04:10:38;;;;;;;;;;;7.70;99.90;;;;;;4956554;29;19952;-77
2021/05/23 04:13:10;;;;;;;;;;;7.70;99.90;;;;;;4955775;28;20026;-77
2021/05/23 04:15:37;;;;;;;;;;;7.60;99.90;;;;;;4954827;28;20024;-79
2021/05/23 04:18:04;;;;;;;;;;;7.60;99.90;;;;;;4938957;29;20057;-77
2021/05/23 04:20:35;;;;;;;;;;;7.60;99.90;;;;;;4938439;29;19966;-78
2021/05/23 04:23:07;;;;;;;;;;;7.60;99.90;;;;;;4955184;28;20385;-77
2021/05/23 04:25:39;;;;;;;;;;;7.50;99.90;;;;;;4938310;29;20300;-77
2021/05/23 04:28:10;;;;;;;;;;;7.60;99.90;;;;;;4955190;28;20025;-77
2021/05/23 04:30:42;;;;;;;;;;;7.60;99.90;;;;;;4954559;28;19926;-79
2021/05/23 04:33:09;;;;;;;;;;;7.60;99.90;;;;;;4938276;29;19976;-77
2021/05/23 04:35:35;;;;;;;;;;;7.60;99.90;;;;;;4938131;29;19972;-77
2021/05/23 04:38:03;;;;;;;;;;;7.60;99.90;;;;;;4938441;29;19957;-77
2021/05/23 04:40:30;;;;;;;;;;;7.50;99.90;;;;;;4938369;29;20468;-77
2021/05/23 04:42:56;;;;;;;;;;;7.50;99.90;;;;;;4938375;29;19981;-77
2021/05/23 04:45:28;;;;;;;;;;;7.50;99.90;;;;;;4938224;29;19933;-77
2021/05/23 04:48:00;;;;;;;;;;;7.40;99.90;;;;;;4939055;29;19962;-77
2021/05/23 04:50:27;;;;;;;;;;;7.50;99.90;;;;;;4938101;29;19957;-77
2021/05/23 04:52:54;;;;;;;;;;;7.50;99.90;;;;;;4969824;28;19977;-77
2021/05/23 04:55:21;;;;;;;;;;;7.40;99.90;;;;;;4938033;29;19961;-77
2021/05/23 04:57:48;;;;;;;;;;;7.50;99.90;;;;;;4954197;28;19982;-76
2021/05/23 05:00:20;;;;;;;;;;;7.50;99.90;;;;;;4937953;29;20037;-77
2021/05/23 05:02:46;;;;;;;;;;;7.50;99.90;;;;;;4953824;28;19926;-77
2021/05/23 05:05:13;;;;;;;;;;;7.50;99.90;;;;;;4937959;29;19926;-76
2021/05/23 05:07:41;;;;;;;;;;;7.50;99.90;;;;;;4938019;29;20482;-77
2021/05/23 05:10:08;;;;;;;;;;;7.50;99.90;;;;;;4955061;29;19927;-77
2021/05/23 05:12:35;;;;;;;;;;;7.50;99.90;;;;;;4937903;29;20472;-77
2021/05/23 05:15:01;;;;;;;;;;;7.50;99.90;;;;;;4937837;29;20440;-77
2021/05/23 05:17:28;;;;;;;;;;;7.50;99.90;;;;;;4937866;29;19972;-77
2021/05/23 05:19:54;;;;;;;;;;;7.60;99.90;;;;;;4953802;28;20017;-77
2021/05/23 05:22:26;;;;;;;;;;;7.50;99.90;;;;;;4937779;29;20465;-76
2021/05/23 05:24:53;;;;;;;;;;;7.60;99.90;;;;;;4937479;29;19926;-76
2021/05/23 05:27:21;;;;;;;;;;;7.60;99.90;;;;;;4937651;29;20181;-76
2021/05/23 05:29:47;;;;;;;;;;;7.60;99.90;;;;;;4954940;29;20025;-76
2021/05/23 05:32:19;;;;;;;;;;;7.60;99.90;;;;;;4938276;29;20440;-77
2021/05/23 05:34:51;;;;;;;;;;;7.70;99.90;;;;;;4937618;29;19926;-76
2021/05/23 05:37:17;;;;;;;;;;;7.70;99.90;;;;;;4937319;29;19969;-76
2021/05/23 05:39:44;;;;;;;;;;;7.70;99.90;;;;;;4937408;29;20416;-76
2021/05/23 05:42:11;;;;;;;;;;;7.70;99.90;;;;;;4937155;29;20013;-77
2021/05/23 05:44:37;;;;;;;;;;;7.70;99.90;;;;;;4937689;29;20017;-77
2021/05/23 05:47:04;;;;;;;;;;;7.70;99.90;;;;;;4937204;29;19978;-76
2021/05/23 05:49:31;;;;;;;;;;;7.70;99.90;;;;;;4937627;29;20156;-77
2021/05/23 05:52:03;;;;;;;;;;;7.80;99.90;;;;;;4937394;29;20017;-77
2021/05/23 05:54:35;;;;;;;;;;;7.80;99.90;;;;;;4937297;29;19934;-77
2021/05/23 05:57:02;;;;;;;;;;;7.80;99.90;;;;;;4937111;29;20025;-78
2021/05/23 05:59:29;;;;;;;;;;;7.80;99.90;;;;;;4937051;29;19973;-77
2021/05/23 06:01:55;;;;;;;;;;;8.00;99.90;;;;;;4937382;29;19976;-76
2021/05/23 06:04:22;;;;;;;;;;;8.00;99.90;;;;;;4953076;28;19974;-78
2021/05/23 06:06:49;;;;;;;;;;;7.90;99.90;;;;;;4937063;29;19973;-77
2021/05/23 06:09:15;;;;;;;;;;;8.00;99.90;;;;;;4937173;29;19961;-77
2021/05/23 06:11:42;;;;;;;;;;;7.90;99.90;;;;;;4954129;28;19933;-77
2021/05/23 06:14:09;;;;;;;;;;;8.00;99.90;;;;;;4936884;29;19926;-78
2021/05/23 06:16:35;;;;;;;;;;;8.00;99.90;;;;;;4954323;29;20021;-77
2021/05/23 06:19:02;;;;;;;;;;;8.00;99.90;;;;;;4937068;29;19989;-77
2021/05/23 06:21:29;;;;;;;;;;;8.10;99.90;;;;;;4937147;29;20133;-77
2021/05/23 06:23:55;;;;;;;;;;;8.10;99.90;;;;;;4937084;29;19926;-77
2021/05/23 06:26:27;;;;;;;;;;;8.10;99.90;;;;;;4954014;28;20030;-77
2021/05/23 06:28:59;;;;;;;;;;;8.00;99.90;;;;;;4954419;28;20043;-76
2021/05/23 06:31:26;;;;;;;;;;;8.00;99.90;;;;;;4941719;28;19969;-77
2021/05/23 06:33:52;;;;;;;;;;;8.00;99.90;;;;;;4955459;28;19937;-76
2021/05/23 06:36:24;;;;;;;;;;;8.00;99.90;;;;;;4937018;29;20387;-77
2021/05/23 06:38:56;;;;;;;;;;;8.10;99.90;;;;;;4937073;29;19926;-77
2021/05/23 06:41:22;;;;;;;;;;;8.20;99.90;;;;;;4947729;28;19930;-77
2021/05/23 06:43:54;;;;;;;;;;;8.30;99.90;;;;;;4933545;29;20389;-76
2021/05/23 06:46:26;;;;;;;;;;;8.30;99.90;;;;;;4917668;29;20017;-77
2021/05/23 06:48:52;;;;;;;;;;;8.30;99.90;;;;;;4932866;29;20030;-76
2021/05/23 06:51:24;;;;;;;;;;;8.40;99.90;;;;;;4917106;29;19933;-76
2021/05/23 06:53:56;;;;;;;;;;;8.40;99.90;;;;;;4935330;29;20033;-77
2021/05/23 06:56:27;;;;;;;;;;;8.50;99.90;;;;;;4921372;29;19927;-79
2021/05/23 06:58:54;;;;;;;;;;;8.50;99.90;;;;;;4936517;29;20029;-76
2021/05/23 07:01:26;;;;;;;;;;;8.50;99.90;;;;;;4928255;28;19972;-76
2021/05/23 07:03:52;;;;;;;;;;;8.50;99.90;;;;;;4960573;28;19957;-76
2021/05/23 07:06:24;;;;;;;;;;;8.50;99.90;;;;;;4959391;28;20021;-77
2021/05/23 07:08:56;;;;;;;;;;;8.50;99.90;;;;;;4957567;28;20017;-76
2021/05/23 07:11:28;;;;;;;;;;;8.50;99.90;;;;;;4942941;29;19969;-78
2021/05/23 07:13:54;;;;;;;;;;;8.60;99.90;;;;;;4975687;29;19937;-78
2021/05/23 07:16:26;;;;;;;;;;;8.60;99.90;;;;;;4978304;28;19962;-78
2021/05/23 07:18:58;;;;;;;;;;;8.60;99.90;;;;;;4977313;29;20033;-78
2021/05/23 07:21:29;;;;;;;;;;;8.60;99.90;;;;;;4941779;29;19933;-76
2021/05/23 07:23:56;;;;;;;;;;;8.60;99.90;;;;;;4955282;29;19926;-77
2021/05/23 07:26:23;;;;;;;;;;;8.70;99.90;;;;;;4955319;28;19980;-77
2021/05/23 07:28:54;;;;;;;;;;;8.70;99.90;;;;;;4970917;28;20029;-77
2021/05/23 07:31:30;;;;;;;;;;;8.70;99.90;;;;;;4955797;28;19973;-77
2021/05/23 07:34:01;;;;;;;;;;;8.70;99.90;;;;;;4938700;29;19927;-77
2021/05/23 07:36:33;;;;;;;;;;;8.60;99.90;;;;;;4938423;29;19936;-76
2021/05/23 07:39:00;;;;;;;;;;;8.70;99.90;;;;;;4953874;29;19926;-77
2021/05/23 07:41:32;;;;;;;;;;;8.70;99.90;;;;;;4939062;29;19933;-76
2021/05/23 07:43:58;;;;;;;;;;;8.70;99.90;;;;;;4971382;28;19981;-75
2021/05/23 07:46:25;;;;;;;;;;;8.70;99.90;;;;;;4947570;29;19927;-76
2021/05/23 07:48:57;;;;;;;;;;;8.70;99.90;;;;;;4973201;28;20412;-77
2021/05/23 07:51:23;;;;;;;;;;;8.70;99.90;;;;;;4954835;28;20024;-76
2021/05/23 07:53:55;;;;;;;;;;;8.70;99.90;;;;;;4989749;28;19926;-77
2021/05/23 07:56:26;;;;;;;;;;;8.60;99.90;;;;;;4957874;28;20407;-76
2021/05/23 07:58:58;;;;;;;;;;;8.60;99.90;;;;;;4958536;28;20020;-76
2021/05/23 08:01:25;;;;;;;;;;;8.50;99.90;;;;;;4958400;28;19948;-76
2021/05/23 08:03:56;;;;;;;;;;;8.40;99.90;;;;;;4973579;28;20016;-76
2021/05/23 08:06:23;;;;;;;;;;;8.30;99.90;;;;;;4974434;28;19977;-77
2021/05/23 08:08:50;;;;;;;;;;;8.10;99.90;;;;;;4990589;28;19926;-76
2021/05/23 08:11:17;;;;;;;;;;;7.90;99.90;;;;;;4974083;28;19969;-76
2021/05/23 08:13:44;;;;;;;;;;;7.80;99.90;;;;;;4975325;28;19953;-76
2021/05/23 08:16:15;;;;;;;;;;;7.80;99.90;;;;;;4958060;28;20009;-76
2021/05/23 08:18:42;;;;;;;;;;;7.70;99.90;;;;;;4975300;28;20480;-77
2021/05/23 08:21:09;;;;;;;;;;;7.80;99.90;;;;;;4974104;28;19965;-77
2021/05/23 08:23:42;;;;;;;;;;;7.80;99.90;;;;;;4957967;28;19926;-79
2021/05/23 08:26:14;;;;;;;;;;;7.80;99.90;;;;;;4973241;28;19940;-76
2021/05/23 08:28:45;;;;;;;;;;;7.90;99.90;;;;;;4957694;28;19989;-76
2021/05/23 08:31:12;;;;;;;;;;;7.90;99.90;;;;;;4973670;28;19938;-77
2021/05/23 08:33:44;;;;;;;;;;;7.90;99.90;;;;;;4957875;28;20288;-76
2021/05/23 08:36:15;;;;;;;;;;;7.90;99.90;;;;;;4972628;28;19926;-79
2021/05/23 08:38:42;;;;;;;;;;;8.00;99.90;;;;;;4973138;28;19965;-76
2021/05/23 08:41:09;;;;;;;;;;;8.10;99.90;;;;;;4957191;28;19981;-76
2021/05/23 08:43:40;;;;;;;;;;;8.10;99.90;;;;;;4972416;28;19932;-76
2021/05/23 08:46:07;;;;;;;;;;;8.20;99.90;;;;;;4956502;28;19926;-76
2021/05/23 08:48:34;;;;;;;;;;;8.30;99.90;;;;;;4972354;28;19976;-76
2021/05/23 08:51:01;;;;;;;;;;;8.20;99.90;;;;;;4940300;28;19926;-77
2021/05/23 08:53:27;;;;;;;;;;;8.40;99.90;;;;;;4973640;28;19957;-76
2021/05/23 08:55:54;;;;;;;;;;;8.60;99.90;;;;;;4959954;28;19936;-80
2021/05/23 08:58:26;;;;;;;;;;;8.90;99.90;;;;;;4939326;29;19962;-80
2021/05/23 09:00:53;;;;;;;;;;;9.00;99.90;;;;;;4955249;28;19926;-80
2021/05/23 09:03:20;;;;;;;;;;;9.20;99.90;;;;;;4939327;29;19954;-79
2021/05/23 09:05:48;;;;;;;;;;;9.30;99.90;;;;;;4954941;29;19978;-80
2021/05/23 09:08:21;;;;;;;;;;;9.50;99.90;;;;;;4923961;29;19927;-79
2021/05/23 09:10:59;;;;;;;;;;;9.80;99.90;;;;;;4952486;28;19933;-79
2021/05/23 09:13:32;;;;;;;;;;;10.00;99.90;;;;;;4937024;29;19981;-79
2021/05/23 09:16:01;;;;;;;;;;;10.10;99.90;;;;;;4951970;28;19977;-79
2021/05/23 09:18:47;;;;;;;;;;;10.20;99.90;;;;;;4968658;28;19993;-79
2021/05/23 09:21:15;;;;;;;;;;;10.40;99.90;;;;;;4952264;28;19961;-79
2021/05/23 09:23:47;;;;;;;;;;;10.50;99.90;;;;;;4936675;29;20456;-79
2021/05/23 09:26:15;;;;;;;;;;;10.70;99.90;;;;;;4969248;28;19927;-78
2021/05/23 09:28:41;;;;;;;;;;;10.90;99.90;;;;;;4936470;29;19931;-79
2021/05/23 09:31:14;;;;;;;;;;;11.00;99.90;;;;;;4951937;28;19984;-79
2021/05/23 09:33:48;;;;;;;;;;;11.10;99.90;;;;;;4937281;29;20021;-78
2021/05/23 09:36:17;;;;;;;;;;;11.10;99.90;;;;;;4936780;29;20421;-79
2021/05/23 09:38:51;;;;;;;;;;;11.30;99.90;;;;;;4936877;29;20342;-78
2021/05/23 09:41:22;;;;;;;;;;;11.20;99.90;;;;;;4936665;29;19930;-79
2021/05/23 09:43:49;;;;;;;;;;;11.10;99.90;;;;;;4920906;29;19927;-78
2021/05/23 09:46:21;;;;;;;;;;;11.10;99.90;;;;;;4936334;29;20092;-78
2021/05/23 09:48:48;;;;;;;;;;;11.30;99.90;;;;;;4936936;29;19977;-78
2021/05/23 09:51:17;;;;;;;;;;;11.50;99.90;;;;;;4968864;28;19957;-78
2021/05/23 09:53:44;;;;;;;;;;;11.70;99.90;;;;;;4936954;29;19931;-79
2021/05/23 09:56:12;;;;;;;;;;;11.90;99.90;;;;;;4953325;28;19958;-78
2021/05/23 09:58:47;;;;;;;;;;;11.90;99.90;;;;;;4937303;29;19927;-79
2021/05/23 10:01:25;;;;;;;;;;;11.70;99.90;;;;;;4954140;28;19934;-78
2021/05/23 10:04:02;;;;;;;;;;;11.70;99.90;;;;;;4939049;29;19926;-78
2021/05/23 10:06:30;;;;;;;;;;;11.60;99.90;;;;;;4938659;29;19933;-79
2021/05/23 10:09:02;;;;;;;;;;;11.50;99.90;;;;;;4956952;28;19999;-79
2021/05/23 10:11:29;;;;;;;;;;;11.30;99.90;;;;;;4955400;28;19985;-80
2021/05/23 10:14:01;;;;;;;;;;;11.40;99.90;;;;;;4936778;29;19969;-79
2021/05/23 10:16:33;;;;;;;;;;;11.40;99.90;;;;;;4951187;29;19949;-78
2021/05/23 10:19:00;;;;;;;;;;;11.40;99.90;;;;;;4936950;29;19980;-79
2021/05/23 10:21:31;;;;;;;;;;;11.30;99.90;;;;;;4961319;28;19997;-80
2021/05/23 10:24:00;;;;;;;;;;;10.70;99.90;;;;;;4961306;28;19954;-79
2021/05/23 10:26:28;;;;;;;;;;;10.10;99.90;;;;;;4971316;28;19986;-80
2021/05/23 10:29:01;;;;;;;;;;;9.60;99.90;;;;;;4970932;28;19926;-80
2021/05/23 10:31:35;;;;;;;;;;;9.10;99.90;;;;;;4941599;29;19931;-79
2021/05/23 10:34:02;;;;;;;;;;;8.90;99.90;;;;;;4941309;29;20378;-80
2021/05/23 10:36:37;;;;;;;;;;;8.70;99.90;;;;;;4942333;29;19989;-80
2021/05/23 10:39:05;;;;;;;;;;;8.70;99.90;;;;;;4940474;29;20479;-79
2021/05/23 10:41:33;;;;;;;;;;;8.80;99.90;;;;;;4972206;28;19934;-80
2021/05/23 10:44:01;;;;;;;;;;;8.90;99.90;;;;;;4939724;29;19976;-80
2021/05/23 10:46:29;;;;;;;;;;;9.10;99.90;;;;;;4954777;28;19931;-79
2021/05/23 10:49:00;;;;;;;;;;;9.40;99.90;;;;;;4939101;29;20001;-79
2021/05/23 10:51:28;;;;;;;;;;;9.80;99.90;;;;;;4954970;28;19933;-79
2021/05/23 10:53:55;;;;;;;;;;;10.20;99.90;;;;;;4961525;28;20469;-80
2021/05/23 10:56:24;;;;;;;;;;;10.60;99.90;;;;;;4968076;28;20345;-79
2021/05/23 10:58:53;;;;;;;;;;;10.80;99.90;;;;;;4947455;28;20356;-79
2021/05/23 11:01:24;;;;;;;;;;;11.00;99.90;;;;;;4970709;28;20472;-79
2021/05/23 11:03:51;;;;;;;;;;;11.20;99.90;;;;;;4924338;29;19982;-79
2021/05/23 11:06:23;;;;;;;;;;;11.40;99.90;;;;;;4955493;29;20402;-80
2021/05/23 11:08:50;;;;;;;;;;;11.50;99.90;;;;;;4941526;29;19977;-79
2021/05/23 11:11:20;;;;;;;;;;;11.70;99.90;;;;;;4959195;29;20357;-79
2021/05/23 11:13:52;;;;;;;;;;;11.90;99.90;;;;;;4956937;28;19965;-79
2021/05/23 11:16:24;;;;;;;;;;;12.00;99.90;;;;;;4945922;28;19934;-79
2021/05/23 11:19:01;;;;;;;;;;;12.10;99.90;;;;;;4973002;28;20389;-78
2021/05/23 11:21:28;;;;;;;;;;;12.20;99.90;;;;;;4973213;28;20373;-78
2021/05/23 11:23:59;;;;;;;;;;;12.40;99.90;;;;;;4989765;28;19926;-79
2021/05/23 11:26:28;;;;;;;;;;;12.40;99.90;;;;;;4957655;28;19977;-79
2021/05/23 11:28:59;;;;;;;;;;;12.20;99.90;;;;;;4945102;28;19981;-79
2021/05/23 11:31:27;;;;;;;;;;;11.80;99.90;;;;;;4974956;28;19926;-80
2021/05/23 11:33:54;;;;;;;;;;;11.40;99.90;;;;;;4974375;28;20385;-79
2021/05/23 11:36:22;;;;;;;;;;;11.20;99.90;;;;;;4989975;28;19961;-79
2021/05/23 11:38:58;;;;;;;;;;;10.90;99.90;;;;;;4955195;28;19933;-79
2021/05/23 11:41:34;;;;;;;;;;;10.90;99.90;;;;;;4958478;28;20386;-79
2021/05/23 11:44:01;;;;;;;;;;;11.00;99.90;;;;;;4957932;28;19977;-79
2021/05/23 11:46:28;;;;;;;;;;;11.10;99.90;;;;;;4957255;28;20017;-79
2021/05/23 11:49:00;;;;;;;;;;;11.40;99.90;;;;;;4958775;28;19926;-79
2021/05/23 11:51:28;;;;;;;;;;;11.70;99.90;;;;;;4957661;28;20313;-80
2021/05/23 11:53:59;;;;;;;;;;;12.00;99.90;;;;;;4957869;28;20369;-78
2021/05/23 11:56:27;;;;;;;;;;;12.20;99.90;;;;;;4937111;29;19981;-79
2021/05/23 11:59:03;;;;;;;;;;;12.50;99.90;;;;;;4938394;29;19930;-79
2021/05/23 12:01:36;;;;;;;;;;;12.70;99.90;;;;;;4937895;29;19978;-79
2021/05/23 12:04:02;;;;;;;;;;;12.80;99.90;;;;;;4969697;28;19926;-79
2021/05/23 12:06:30;;;;;;;;;;;13.00;99.90;;;;;;4954027;28;20409;-79
2021/05/23 12:09:09;;;;;;;;;;;13.20;99.90;;;;;;4938170;29;19982;-79
2021/05/23 12:11:36;;;;;;;;;;;13.30;99.90;;;;;;4922554;29;19989;-79
2021/05/23 12:14:03;;;;;;;;;;;13.40;99.90;;;;;;4937774;29;19954;-79
2021/05/23 12:16:35;;;;;;;;;;;13.50;99.90;;;;;;4952927;29;20421;-79
2021/05/23 12:19:02;;;;;;;;;;;13.60;99.90;;;;;;4937895;29;19927;-79
2021/05/23 12:21:31;;;;;;;;;;;13.70;99.90;;;;;;4953984;28;19930;-80
2021/05/23 12:24:03;;;;;;;;;;;13.90;99.90;;;;;;4954986;29;20039;-78
2021/05/23 12:26:30;;;;;;;;;;;14.10;99.90;;;;;;4935799;28;19966;-78
2021/05/23 12:29:02;;;;;;;;;;;14.20;99.90;;;;;;4937334;29;20665;-78
2021/05/23 12:31:29;;;;;;;;;;;14.00;99.90;;;;;;4953243;28;19926;-78
2021/05/23 12:33:56;;;;;;;;;;;14.00;99.90;;;;;;4937472;29;19968;-78
2021/05/23 12:36:24;;;;;;;;;;;14.10;99.90;;;;;;4953237;28;19926;-78
2021/05/23 12:38:58;;;;;;;;;;;14.10;99.90;;;;;;4953967;28;19926;-77
2021/05/23 12:41:47;;;;;;;;;;;14.20;99.90;;;;;;4937579;29;20067;-78
2021/05/23 12:44:24;;;;;;;;;;;14.40;99.90;;;;;;4969183;28;19926;-78
2021/05/23 12:46:52;;;;;;;;;;;14.40;99.90;;;;;;4954595;28;20013;-78
2021/05/23 12:49:24;;;;;;;;;;;14.50;99.90;;;;;;4938196;28;20128;-78
2021/05/23 12:51:52;;;;;;;;;;;14.50;99.90;;;;;;4938532;29;19949;-79
2021/05/23 12:54:25;;;;;;;;;;;14.60;99.90;;;;;;4938452;29;19930;-78
2021/05/23 12:57:01;;;;;;;;;;;14.80;99.90;;;;;;4955069;28;20017;-79
2021/05/23 12:59:35;;;;;;;;;;;15.00;99.90;;;;;;4938607;29;19926;-79
2021/05/23 13:02:07;;;;;;;;;;;15.10;99.90;;;;;;4938623;29;19993;-78
2021/05/23 13:04:40;;;;;;;;;;;15.10;99.90;;;;;;4955519;28;19926;-78
2021/05/23 13:07:07;;;;;;;;;;;14.80;99.90;;;;;;4954914;28;19933;-78
2021/05/23 13:09:42;;;;;;;;;;;14.40;99.90;;;;;;4955746;29;19931;-78
2021/05/23 13:12:16;;;;;;;;;;;14.20;99.90;;;;;;4955428;28;20437;-78
2021/05/23 13:15:02;;;;;;;;;;;14.00;99.90;;;;;;4956178;29;19961;-78
2021/05/23 13:17:30;;;;;;;;;;;13.90;99.90;;;;;;4955830;29;19976;-78
2021/05/23 13:19:57;;;;;;;;;;;13.70;99.90;;;;;;4938599;29;20274;-78
2021/05/23 13:22:27;;;;;;;;;;;13.60;99.90;;;;;;4954380;28;20029;-78
2021/05/23 13:24:54;;;;;;;;;;;13.50;99.90;;;;;;4938633;29;19933;-79
2021/05/23 13:27:20;;;;;;;;;;;13.30;99.90;;;;;;4955316;29;20016;-79
2021/05/23 13:29:47;;;;;;;;;;;13.40;99.90;;;;;;4954391;28;20313;-79
2021/05/23 13:32:15;;;;;;;;;;;13.70;99.90;;;;;;4943646;29;20034;-80
2021/05/23 13:34:50;;;;;;;;;;;14.20;99.90;;;;;;4961927;28;19926;-79
2021/05/23 13:37:17;;;;;;;;;;;14.50;99.90;;;;;;4955293;28;19993;-79
2021/05/23 13:39:45;;;;;;;;;;;14.80;99.90;;;;;;4959442;28;19953;-78
2021/05/23 13:42:17;;;;;;;;;;;15.10;99.90;;;;;;4933729;28;19926;-78
2021/05/23 13:44:44;;;;;;;;;;;15.50;99.90;;;;;;4958199;28;19989;-79
2021/05/23 13:47:13;;;;;;;;;;;15.80;99.90;;;;;;4973653;28;19926;-79
2021/05/23 13:49:40;;;;;;;;;;;16.10;99.90;;;;;;4957310;28;19926;-79
2021/05/23 13:52:13;;;;;;;;;;;16.20;99.90;;;;;;4957382;28;20016;-79
2021/05/23 13:54:40;;;;;;;;;;;16.10;99.90;;;;;;4941156;28;19926;-78
2021/05/23 13:57:07;;;;;;;;;;;16.00;99.90;;;;;;4957393;28;20353;-79
2021/05/23 13:59:35;;;;;;;;;;;15.80;99.90;;;;;;4973059;28;20024;-79
2021/05/23 14:02:02;;;;;;;;;;;15.90;99.90;;;;;;4991481;28;20381;-78
2021/05/23 14:04:31;;;;;;;;;;;16.00;99.90;;;;;;4993659;28;19985;-79
2021/05/23 14:07:03;;;;;;;;;;;16.10;99.90;;;;;;4978027;28;19926;-79
2021/05/23 14:09:35;;;;;;;;;;;16.20;99.90;;;;;;4961048;28;19933;-78
2021/05/23 14:12:03;;;;;;;;;;;16.40;99.90;;;;;;4993460;28;20363;-79
2021/05/23 14:14:35;;;;;;;;;;;16.60;99.90;;;;;;4978049;28;19926;-79
2021/05/23 14:17:07;;;;;;;;;;;16.70;99.90;;;;;;4962132;28;19927;-79
2021/05/23 14:19:34;;;;;;;;;;;16.70;99.90;;;;;;4960896;28;20412;-79
2021/05/23 14:22:06;;;;;;;;;;;17.10;99.90;;;;;;4960891;28;19972;-79
2021/05/23 14:24:34;;;;;;;;;;;17.10;96.80;;;;;;4944990;28;20020;-79
2021/05/23 14:27:01;;;;;;;;;;;17.30;96.40;;;;;;4976870;28;19927;-79
2021/05/23 14:29:29;;;;;;;;;;;17.60;93.50;;;;;;4944839;28;19926;-79
2021/05/23 14:31:58;;;;;;;;;;;17.40;92.10;;;;;;4944936;28;20379;-78
2021/05/23 14:34:30;;;;;;;;;;;17.10;89.90;;;;;;4977441;28;19926;-79
2021/05/23 14:36:58;;;;;;;;;;;17.30;85.70;;;;;;4944728;28;20320;-79